createdAt,value
2023-03-29T00:02:30.161Z,60.79
2023-03-29T00:05:02.018Z,60.82
2023-03-29T00:07:30.212Z,61.00
2023-03-29T00:09:56.842Z,60.84
2023-03-29T00:12:23.306Z,60.77
2023-03-29T00:14:49.876Z,60.70
2023-03-29T00:17:16.860Z,60.62
2023-03-29T00:19:44.771Z,60.67
2023-03-29T00:22:11.706Z,60.89
2023-03-29T00:24:38.278Z,60.82
2023-03-29T00:27:05.701Z,60.88
2023-03-29T00:29:32.461Z,60.78
2023-03-29T00:31:59.535Z,60.88
2023-03-29T00:34:30.927Z,60.79
2023-03-29T00:36:58.486Z,60.95
2023-03-29T00:39:27.994Z,61.10
2023-03-29T00:41:54.680Z,61.26
2023-03-29T00:44:58.784Z,61.31
2023-03-29T00:47:45.483Z,61.41
2023-03-29T00:50:16.781Z,61.45
2023-03-29T00:52:48.681Z,61.44
2023-03-29T00:55:19.708Z,61.59
2023-03-29T00:57:47.247Z,61.70
2023-03-29T01:00:20.970Z,61.79
2023-03-29T01:02:54.455Z,61.92
2023-03-29T01:05:34.756Z,61.87
2023-03-29T01:08:08.957Z,61.83
2023-03-29T01:11:02.951Z,61.78
2023-03-29T01:13:42.280Z,61.77
2023-03-29T01:16:11.642Z,61.70
2023-03-29T01:18:38.396Z,61.83
2023-03-29T01:21:14.773Z,61.68
2023-03-29T01:23:54.644Z,61.69
2023-03-29T01:26:41.379Z,61.64
2023-03-29T01:29:15.344Z,61.82
2023-03-29T01:31:47.603Z,61.69
2023-03-29T01:34:28.553Z,61.80
2023-03-29T01:37:04.570Z,61.95
2023-03-29T01:39:34.479Z,61.96
2023-03-29T01:42:24.123Z,62.20
2023-03-29T01:44:56.651Z,62.44
2023-03-29T01:47:36.481Z,62.67
2023-03-29T01:50:16.283Z,62.98
2023-03-29T01:52:56.915Z,63.23
2023-03-29T01:55:36.070Z,63.54
2023-03-29T01:58:05.219Z,63.95
2023-03-29T02:00:34.812Z,64.36
2023-03-29T02:03:06.935Z,64.44
2023-03-29T02:05:35.809Z,64.79
2023-03-29T02:08:05.410Z,65.35
2023-03-29T02:10:34.150Z,65.82
2023-03-29T02:13:00.983Z,65.93
2023-03-29T02:15:28.199Z,66.13
2023-03-29T02:17:56.779Z,66.49
2023-03-29T02:20:32.102Z,66.50
2023-03-29T02:23:15.558Z,66.78
2023-03-29T02:25:45.668Z,67.10
2023-03-29T02:28:13.056Z,67.63
2023-03-29T02:31:26.142Z,67.90
2023-03-29T02:33:53.071Z,68.08
2023-03-29T02:36:34.439Z,68.61
2023-03-29T02:39:04.957Z,69.11
2023-03-29T02:41:32.720Z,69.31
2023-03-29T02:44:01.222Z,69.19
2023-03-29T02:46:28.260Z,69.54
2023-03-29T02:48:56.140Z,69.57
2023-03-29T02:51:28.824Z,69.93
2023-03-29T02:54:15.512Z,69.99
2023-03-29T02:56:48.390Z,70.27
2023-03-29T02:59:17.709Z,70.53
2023-03-29T03:01:44.889Z,70.75
2023-03-29T03:04:13.430Z,70.85
2023-03-29T03:06:40.326Z,70.94
2023-03-29T03:09:07.669Z,70.91
2023-03-29T03:11:34.228Z,71.31
2023-03-29T03:14:00.979Z,72.32
2023-03-29T03:16:28.102Z,73.01
2023-03-29T03:18:55.650Z,73.66
2023-03-29T03:21:22.999Z,74.43
2023-03-29T03:23:49.870Z,75.42
2023-03-29T03:26:18.007Z,75.39
2023-03-29T03:28:45.772Z,76.12
2023-03-29T03:31:15.626Z,77.08
2023-03-29T03:33:42.296Z,77.17
2023-03-29T03:36:10.830Z,77.23
2023-03-29T03:38:38.767Z,78.17
2023-03-29T03:41:09.804Z,78.76
2023-03-29T03:43:36.457Z,79.11
2023-03-29T03:46:03.339Z,79.43
2023-03-29T03:48:30.361Z,80.29
2023-03-29T03:50:59.135Z,80.59
2023-03-29T03:53:27.406Z,80.73
2023-03-29T03:55:58.025Z,81.44
2023-03-29T03:58:24.768Z,81.51
2023-03-29T04:00:51.836Z,81.77
2023-03-29T04:03:18.643Z,81.61
2023-03-29T04:05:46.443Z,81.72
2023-03-29T04:08:14.164Z,81.52
2023-03-29T04:10:40.931Z,81.39
2023-03-29T04:13:07.750Z,81.67
2023-03-29T04:15:38.775Z,81.85
2023-03-29T04:18:07.701Z,81.90
2023-03-29T04:20:35.177Z,82.56
2023-03-29T04:23:01.961Z,83.01
2023-03-29T04:25:29.642Z,83.08
2023-03-29T04:27:56.625Z,82.94
2023-03-29T04:30:23.643Z,82.91
2023-03-29T04:32:50.490Z,83.11
2023-03-29T04:35:17.881Z,83.85
2023-03-29T04:37:44.403Z,84.10
2023-03-29T04:40:14.347Z,84.00
2023-03-29T04:42:45.932Z,84.14
2023-03-29T04:45:18.089Z,84.32
2023-03-29T04:47:46.057Z,84.30
2023-03-29T04:50:14.124Z,84.31
2023-03-29T04:52:41.465Z,84.62
2023-03-29T04:55:09.387Z,84.89
2023-03-29T04:57:36.087Z,85.03
2023-03-29T05:00:08.321Z,84.94
2023-03-29T05:02:35.145Z,84.96
2023-03-29T05:05:01.603Z,84.73
2023-03-29T05:07:28.093Z,85.16
2023-03-29T05:09:54.643Z,85.12
2023-03-29T05:12:21.498Z,85.03
2023-03-29T05:14:48.007Z,85.19
2023-03-29T05:17:14.500Z,85.09
2023-03-29T05:19:41.434Z,85.07
2023-03-29T05:22:08.901Z,85.06
2023-03-29T05:24:35.652Z,85.10
2023-03-29T05:27:02.479Z,84.76
2023-03-29T05:29:29.044Z,84.74
2023-03-29T05:31:55.817Z,84.70
2023-03-29T05:34:22.441Z,84.81
2023-03-29T05:36:49.186Z,84.73
2023-03-29T05:39:15.865Z,84.79
2023-03-29T05:41:42.694Z,84.82
2023-03-29T05:44:09.298Z,84.58
2023-03-29T05:46:38.770Z,84.40
2023-03-29T05:49:06.447Z,84.27
2023-03-29T05:51:33.354Z,84.34
2023-03-29T05:53:59.924Z,84.24
2023-03-29T05:56:26.998Z,84.25
2023-03-29T05:58:56.912Z,84.13
2023-03-29T06:01:24.639Z,83.96
2023-03-29T06:03:52.130Z,83.82
2023-03-29T06:06:19.187Z,83.94
2023-03-29T06:08:46.417Z,83.88
2023-03-29T06:11:13.494Z,83.74
2023-03-29T06:13:41.534Z,83.74
2023-03-29T06:16:10.060Z,83.71
2023-03-29T06:18:40.015Z,83.51
2023-03-29T06:21:09.289Z,83.45
2023-03-29T06:23:36.474Z,83.17
2023-03-29T06:26:04.509Z,83.09
2023-03-29T06:28:31.082Z,82.65
2023-03-29T06:31:02.834Z,82.50
2023-03-29T06:33:30.892Z,82.24
2023-03-29T06:35:57.691Z,82.15
2023-03-29T06:38:26.796Z,81.56
2023-03-29T06:41:01.161Z,81.42
2023-03-29T06:43:27.897Z,81.03
2023-03-29T06:45:54.973Z,81.09
2023-03-29T06:48:21.671Z,80.82
2023-03-29T06:50:49.296Z,80.37
2023-03-29T06:53:17.078Z,79.66
2023-03-29T06:55:43.843Z,79.29
2023-03-29T06:58:11.090Z,79.16
2023-03-29T07:00:39.229Z,78.92
2023-03-29T07:03:09.814Z,78.54
2023-03-29T07:05:40.721Z,77.74
2023-03-29T07:08:07.614Z,77.73
2023-03-29T07:10:47.431Z,77.27
2023-03-29T07:13:15.541Z,76.55
2023-03-29T07:15:43.486Z,75.70
2023-03-29T07:18:11.038Z,75.36
2023-03-29T07:20:38.679Z,74.55
2023-03-29T07:23:05.937Z,74.92
2023-03-29T07:25:34.172Z,74.37
2023-03-29T07:28:00.943Z,74.00
2023-03-29T07:30:31.619Z,73.70
2023-03-29T07:32:59.555Z,73.74
2023-03-29T07:35:28.267Z,73.71
2023-03-29T07:37:55.889Z,73.54
2023-03-29T07:40:26.522Z,73.07
2023-03-29T07:42:56.794Z,73.06
2023-03-29T07:45:27.541Z,73.09
2023-03-29T07:47:59.506Z,72.65
2023-03-29T07:50:32.589Z,72.61
2023-03-29T07:53:00.868Z,72.28
2023-03-29T07:55:27.517Z,71.57
2023-03-29T07:57:54.214Z,71.70
2023-03-29T08:00:22.425Z,71.20
2023-03-29T08:02:52.356Z,71.05
2023-03-29T08:05:37.951Z,70.74
2023-03-29T08:08:09.769Z,71.22
2023-03-29T08:10:39.123Z,71.16
2023-03-29T08:13:08.462Z,71.63
2023-03-29T08:15:37.914Z,71.21
2023-03-29T08:18:05.285Z,71.31
2023-03-29T08:20:32.845Z,70.82
2023-03-29T08:22:59.504Z,70.58
2023-03-29T08:25:26.047Z,70.32
2023-03-29T08:27:53.459Z,71.02
2023-03-29T08:30:20.004Z,70.89
2023-03-29T08:32:50.396Z,69.76
2023-03-29T08:35:18.297Z,69.57
2023-03-29T08:37:44.765Z,69.46
2023-03-29T08:40:26.341Z,69.67
2023-03-29T08:43:08.326Z,69.57
2023-03-29T08:45:38.945Z,69.08
2023-03-29T08:48:05.397Z,69.13
2023-03-29T08:50:39.218Z,69.03
2023-03-29T08:53:12.639Z,68.59
2023-03-29T08:55:59.967Z,68.84
2023-03-29T08:58:32.149Z,68.98
2023-03-29T09:01:00.797Z,68.24
2023-03-29T09:03:48.484Z,68.41
2023-03-29T09:06:19.491Z,68.10
2023-03-29T09:08:49.094Z,68.04
2023-03-29T09:11:27.456Z,67.98
2023-03-29T09:14:14.872Z,68.21
2023-03-29T09:16:56.431Z,67.97
2023-03-29T09:20:01.324Z,67.44
2023-03-29T09:22:41.797Z,66.62
2023-03-29T09:25:24.205Z,66.91
2023-03-29T09:28:25.429Z,67.06
2023-03-29T09:31:00.212Z,67.70
2023-03-29T09:33:37.263Z,67.89
2023-03-29T09:36:23.672Z,68.20
2023-03-29T09:38:54.394Z,68.70
2023-03-29T09:41:34.592Z,68.36
2023-03-29T09:44:10.891Z,68.50
2023-03-29T09:46:56.062Z,68.80
2023-03-29T09:49:28.583Z,68.58
2023-03-29T09:51:59.684Z,68.84
2023-03-29T09:54:26.520Z,68.69
2023-03-29T09:56:53.582Z,68.19
2023-03-29T09:59:21.258Z,68.36
2023-03-29T10:01:48.223Z,67.98
2023-03-29T10:04:16.805Z,67.73
2023-03-29T10:06:49.535Z,68.13
2023-03-29T10:09:24.647Z,67.88
2023-03-29T10:11:57.673Z,67.85
2023-03-29T10:14:46.499Z,67.94
2023-03-29T10:17:21.932Z,68.34
2023-03-29T10:19:55.673Z,68.38
2023-03-29T10:22:24.532Z,68.41
2023-03-29T10:24:53.192Z,68.47
2023-03-29T10:27:26.092Z,68.95
2023-03-29T10:29:54.077Z,69.40
2023-03-29T10:32:28.565Z,69.26
2023-03-29T10:34:59.515Z,68.71
2023-03-29T10:37:28.392Z,69.10
2023-03-29T10:39:55.052Z,70.53
2023-03-29T10:42:24.905Z,71.22
2023-03-29T10:45:00.121Z,71.65
2023-03-29T10:47:34.406Z,71.46
2023-03-29T10:50:01.905Z,70.77
2023-03-29T10:52:29.776Z,69.80
2023-03-29T10:54:57.068Z,70.29
2023-03-29T10:57:40.854Z,70.45
2023-03-29T11:00:39.788Z,70.24
2023-03-29T11:03:44.770Z,69.76
2023-03-29T11:06:28.365Z,69.81
2023-03-29T11:09:40.143Z,69.45
2023-03-29T11:12:28.478Z,69.04
2023-03-29T11:15:11.191Z,68.30
2023-03-29T11:17:53.398Z,68.30
2023-03-29T11:20:24.325Z,67.95
2023-03-29T11:23:00.294Z,68.05
2023-03-29T11:25:42.403Z,67.14
2023-03-29T11:28:25.023Z,66.04
2023-03-29T11:31:01.221Z,65.11
2023-03-29T11:33:43.989Z,65.08
2023-03-29T11:36:13.318Z,64.18
2023-03-29T11:39:00.769Z,63.60
2023-03-29T11:41:38.487Z,63.45
2023-03-29T11:44:30.358Z,63.62
2023-03-29T11:47:23.136Z,63.42
2023-03-29T11:50:32.169Z,63.98
2023-03-29T11:53:08.569Z,63.35
2023-03-29T11:55:38.568Z,62.69
2023-03-29T11:58:22.442Z,62.86
2023-03-29T12:00:55.748Z,62.25
2023-03-29T12:03:41.126Z,61.67
2023-03-29T12:06:18.998Z,61.27
2023-03-29T12:09:01.335Z,60.08
2023-03-29T12:11:38.783Z,58.52
2023-03-29T12:14:13.103Z,56.13
2023-03-29T12:17:01.028Z,55.17
2023-03-29T12:19:39.659Z,53.48
2023-03-29T12:22:09.234Z,53.47
2023-03-29T12:24:40.022Z,54.22
2023-03-29T12:27:27.349Z,55.41
2023-03-29T12:30:13.974Z,56.04
2023-03-29T12:32:59.103Z,56.25
2023-03-29T12:35:48.725Z,56.05
2023-03-29T12:38:25.452Z,56.63
2023-03-29T12:41:00.774Z,57.29
2023-03-29T12:43:31.064Z,56.17
2023-03-29T12:46:27.671Z,55.85
2023-03-29T12:49:33.603Z,56.34
2023-03-29T12:52:03.569Z,55.72
2023-03-29T12:54:33.742Z,55.84
2023-03-29T12:57:18.405Z,55.45
2023-03-29T12:59:53.931Z,55.74
2023-03-29T13:02:35.296Z,56.34
2023-03-29T13:05:04.726Z,57.88
2023-03-29T13:07:45.533Z,58.72
2023-03-29T13:10:34.399Z,59.61
2023-03-29T13:13:11.918Z,61.33
2023-03-29T13:15:39.296Z,63.34
2023-03-29T13:18:26.383Z,65.38
2023-03-29T13:21:13.012Z,67.52
2023-03-29T13:23:59.264Z,68.45
2023-03-29T13:26:45.273Z,69.62
2023-03-29T13:29:43.400Z,70.75
2023-03-29T13:32:28.463Z,71.85
2023-03-29T13:35:12.998Z,73.37
2023-03-29T13:38:22.965Z,74.14
2023-03-29T13:40:52.934Z,75.35
2023-03-29T13:43:19.402Z,75.43
2023-03-29T13:46:16.681Z,76.42
2023-03-29T13:48:43.219Z,77.12
2023-03-29T13:51:18.552Z,77.74
2023-03-29T13:54:01.196Z,78.28
2023-03-29T13:56:34.854Z,78.91
2023-03-29T13:59:13.526Z,79.54
2023-03-29T14:01:50.592Z,79.56
2023-03-29T14:04:24.838Z,78.31
2023-03-29T14:06:55.708Z,77.34
2023-03-29T14:09:28.154Z,75.52
2023-03-29T14:11:55.432Z,75.20
2023-03-29T14:14:25.513Z,75.21
2023-03-29T14:16:55.929Z,74.88
2023-03-29T14:19:34.280Z,73.59
2023-03-29T14:22:02.090Z,73.33
2023-03-29T14:24:37.245Z,73.56
2023-03-29T14:27:06.050Z,74.20
2023-03-29T14:29:34.175Z,74.11
2023-03-29T14:32:12.578Z,73.81
2023-03-29T14:34:40.512Z,70.92
2023-03-29T14:37:09.090Z,69.22
2023-03-29T14:39:36.454Z,68.90
2023-03-29T14:42:03.831Z,69.56
2023-03-29T14:44:33.243Z,70.47
2023-03-29T14:47:01.547Z,70.75
2023-03-29T14:49:29.220Z,71.45
2023-03-29T14:51:56.670Z,72.15
2023-03-29T14:54:28.869Z,72.33
2023-03-29T14:56:55.981Z,72.93
2023-03-29T14:59:36.629Z,73.37
2023-03-29T15:02:04.413Z,73.76
2023-03-29T15:04:35.981Z,73.92
2023-03-29T15:07:04.976Z,74.52
2023-03-29T15:09:34.681Z,74.92
2023-03-29T15:12:03.449Z,75.45
2023-03-29T15:14:37.960Z,75.71
2023-03-29T15:17:51.078Z,76.24
2023-03-29T15:20:24.137Z,76.92
2023-03-29T15:23:04.627Z,77.28
2023-03-29T15:25:39.361Z,77.35
2023-03-29T15:28:06.325Z,77.58
2023-03-29T15:30:39.451Z,77.48
2023-03-29T15:33:25.353Z,77.69
2023-03-29T15:35:54.234Z,78.09
2023-03-29T15:38:27.491Z,78.52
2023-03-29T15:41:01.341Z,78.77
2023-03-29T15:43:28.246Z,78.72
2023-03-29T15:45:56.046Z,78.82
2023-03-29T15:48:26.421Z,78.61
2023-03-29T15:50:53.619Z,78.90
2023-03-29T15:53:21.850Z,78.91
2023-03-29T15:55:52.227Z,79.13
2023-03-29T15:58:24.569Z,78.95
2023-03-29T16:00:59.240Z,79.59
2023-03-29T16:03:29.037Z,79.92
2023-03-29T16:05:56.957Z,79.96
2023-03-29T16:08:25.096Z,80.30
2023-03-29T16:10:51.864Z,80.24
2023-03-29T16:13:18.492Z,80.27
2023-03-29T16:15:46.215Z,80.33
2023-03-29T16:18:12.724Z,80.57
2023-03-29T16:20:39.558Z,80.80
2023-03-29T16:23:09.444Z,81.02
2023-03-29T16:25:38.505Z,81.08
2023-03-29T16:28:06.416Z,81.10
2023-03-29T16:30:33.494Z,81.28
2023-03-29T16:33:01.192Z,81.64
2023-03-29T16:35:31.078Z,81.70
2023-03-29T16:37:58.018Z,81.93
2023-03-29T16:40:25.136Z,82.24
2023-03-29T16:42:51.939Z,82.56
2023-03-29T16:45:19.625Z,82.68
2023-03-29T16:47:46.586Z,82.90
2023-03-29T16:50:16.236Z,83.02
2023-03-29T16:52:42.796Z,83.31
2023-03-29T16:55:15.149Z,83.43
2023-03-29T16:57:42.366Z,83.57
2023-03-29T17:00:16.390Z,83.71
2023-03-29T17:02:43.821Z,83.92
2023-03-29T17:05:11.901Z,83.93
2023-03-29T17:07:39.400Z,84.04
2023-03-29T17:10:10.650Z,84.24
2023-03-29T17:12:37.273Z,84.61
2023-03-29T17:15:05.672Z,84.79
2023-03-29T17:17:32.218Z,84.84
2023-03-29T17:19:58.736Z,84.80
2023-03-29T17:22:25.704Z,84.88
2023-03-29T17:24:52.547Z,84.74
2023-03-29T17:27:19.168Z,84.82
2023-03-29T17:29:45.898Z,84.72
2023-03-29T17:32:12.674Z,84.68
2023-03-29T17:34:39.292Z,85.06
2023-03-29T17:37:06.183Z,85.17
2023-03-29T17:39:37.527Z,85.29
2023-03-29T17:42:05.375Z,85.26
2023-03-29T17:44:33.331Z,85.22
2023-03-29T17:47:01.034Z,85.42
2023-03-29T17:49:28.056Z,85.42
2023-03-29T17:51:54.810Z,85.45
2023-03-29T17:54:21.435Z,85.29
2023-03-29T17:56:47.888Z,85.28
2023-03-29T17:59:14.527Z,85.30
2023-03-29T18:01:41.669Z,85.48
2023-03-29T18:04:08.313Z,85.65
2023-03-29T18:06:35.299Z,85.75
2023-03-29T18:09:01.744Z,85.96
2023-03-29T18:11:29.132Z,85.71
2023-03-29T18:13:59.208Z,85.77
2023-03-29T18:16:26.636Z,85.84
2023-03-29T18:18:53.229Z,85.85
2023-03-29T18:21:20.146Z,85.85
2023-03-29T18:23:48.191Z,85.64
2023-03-29T18:26:16.336Z,85.68
2023-03-29T18:28:47.048Z,85.47
2023-03-29T18:31:14.238Z,85.53
2023-03-29T18:33:40.847Z,85.44
2023-03-29T18:36:11.977Z,85.33
2023-03-29T18:38:40.692Z,85.23
2023-03-29T18:41:08.547Z,85.13
2023-03-29T18:43:35.954Z,85.18
2023-03-29T18:46:03.521Z,85.22
2023-03-29T18:48:31.221Z,85.43
2023-03-29T18:50:58.465Z,85.49
2023-03-29T18:53:25.188Z,85.46
2023-03-29T18:55:51.790Z,85.52
2023-03-29T18:58:20.410Z,85.59
2023-03-29T19:00:47.024Z,85.44
2023-03-29T19:03:13.670Z,85.46
2023-03-29T19:05:41.046Z,85.38
2023-03-29T19:08:08.984Z,85.53
2023-03-29T19:10:39.975Z,85.39
2023-03-29T19:13:06.595Z,85.47
2023-03-29T19:15:34.662Z,85.70
2023-03-29T19:18:01.656Z,85.72
2023-03-29T19:20:29.397Z,85.83
2023-03-29T19:22:56.461Z,85.91
2023-03-29T19:25:23.099Z,86.18
2023-03-29T19:27:50.348Z,86.54
2023-03-29T19:30:18.321Z,87.58
2023-03-29T19:32:44.999Z,88.07
2023-03-29T19:35:12.794Z,88.87
2023-03-29T19:37:39.933Z,89.90
2023-03-29T19:40:08.340Z,90.20
2023-03-29T19:42:37.433Z,90.53
2023-03-29T19:45:06.153Z,90.63
2023-03-29T19:47:32.993Z,90.72
2023-03-29T19:50:00.417Z,91.35
2023-03-29T19:52:28.377Z,91.50
2023-03-29T19:54:56.656Z,91.65
2023-03-29T19:57:24.035Z,91.62
2023-03-29T19:59:52.996Z,91.86
2023-03-29T20:02:19.597Z,92.05
2023-03-29T20:04:46.366Z,92.19
2023-03-29T20:07:13.063Z,92.50
2023-03-29T20:09:39.633Z,92.68
2023-03-29T20:12:06.336Z,92.71
2023-03-29T20:14:34.306Z,92.77
2023-03-29T20:17:01.019Z,92.91
2023-03-29T20:19:27.728Z,92.94
2023-03-29T20:21:58.238Z,93.41
2023-03-29T20:24:25.929Z,93.44
2023-03-29T20:26:52.886Z,93.80
2023-03-29T20:29:19.490Z,94.27
2023-03-29T20:31:47.047Z,94.29
2023-03-29T20:34:13.762Z,94.37
2023-03-29T20:36:40.497Z,94.48
2023-03-29T20:39:08.246Z,94.48
2023-03-29T20:41:38.350Z,94.37
2023-03-29T20:44:05.619Z,94.38
2023-03-29T20:46:35.893Z,94.24
2023-03-29T20:49:05.024Z,94.08
2023-03-29T20:51:34.746Z,93.95
2023-03-29T20:54:04.710Z,93.95
2023-03-29T20:56:33.953Z,93.65
2023-03-29T20:59:00.879Z,93.50
2023-03-29T21:01:29.476Z,93.40
2023-03-29T21:03:56.496Z,93.44
2023-03-29T21:06:24.386Z,93.37
2023-03-29T21:08:52.563Z,93.25
2023-03-29T21:11:21.011Z,93.15
2023-03-29T21:13:47.623Z,93.27
2023-03-29T21:16:14.173Z,93.44
2023-03-29T21:18:41.620Z,93.36
2023-03-29T21:21:09.667Z,93.34
2023-03-29T21:23:37.222Z,93.52
2023-03-29T21:26:07.357Z,93.46
2023-03-29T21:28:33.840Z,93.46
2023-03-29T21:31:04.960Z,93.55
2023-03-29T21:33:32.362Z,93.67
2023-03-29T21:35:58.904Z,93.65
2023-03-29T21:38:25.670Z,93.61
2023-03-29T21:40:52.415Z,93.64
2023-03-29T21:43:18.870Z,93.70
2023-03-29T21:45:49.883Z,93.88
2023-03-29T21:48:17.078Z,94.16
2023-03-29T21:50:44.021Z,94.33
2023-03-29T21:53:10.626Z,94.37
2023-03-29T21:55:37.515Z,94.51
2023-03-29T21:58:04.736Z,94.73
2023-03-29T22:00:32.014Z,95.07
2023-03-29T22:02:58.697Z,95.35
2023-03-29T22:05:26.389Z,95.48
2023-03-29T22:07:52.977Z,95.65
2023-03-29T22:10:22.859Z,95.76
2023-03-29T22:12:51.125Z,95.75
2023-03-29T22:15:20.704Z,95.88
2023-03-29T22:17:48.165Z,96.10
2023-03-29T22:20:15.441Z,96.23
2023-03-29T22:22:49.777Z,96.52
2023-03-29T22:25:18.013Z,96.89
2023-03-29T22:27:46.948Z,97.18
2023-03-29T22:30:15.007Z,97.29
2023-03-29T22:32:42.453Z,97.54
2023-03-29T22:35:09.754Z,97.64
2023-03-29T22:37:45.813Z,97.64
2023-03-29T22:40:13.222Z,97.75
2023-03-29T22:42:39.812Z,97.77
2023-03-29T22:45:07.413Z,97.90
2023-03-29T22:47:35.379Z,97.86
2023-03-29T22:50:02.097Z,98.06
2023-03-29T22:52:28.634Z,98.26
2023-03-29T22:54:55.320Z,98.49
2023-03-29T22:57:21.874Z,98.62
2023-03-29T22:59:48.434Z,98.78
2023-03-29T23:02:14.873Z,98.88
2023-03-29T23:04:42.276Z,98.97
2023-03-29T23:07:09.171Z,99.23
2023-03-29T23:09:35.637Z,99.40
2023-03-29T23:12:02.166Z,99.33
2023-03-29T23:14:28.626Z,99.63
2023-03-29T23:16:55.064Z,99.66
2023-03-29T23:19:21.501Z,99.74
2023-03-29T23:21:48.011Z,99.95
2023-03-29T23:24:18.836Z,100.00
2023-03-29T23:26:45.689Z,99.98
2023-03-29T23:29:12.444Z,99.96
2023-03-29T23:31:38.982Z,100.00
2023-03-29T23:34:05.483Z,99.98
2023-03-29T23:36:31.998Z,100.00
2023-03-29T23:38:59.571Z,100.00
2023-03-29T23:41:28.385Z,100.00
2023-03-29T23:43:57.545Z,100.00
2023-03-29T23:46:24.673Z,100.00
2023-03-29T23:48:52.285Z,99.99
2023-03-29T23:51:23.010Z,100.00
2023-03-29T23:53:49.957Z,100.00
2023-03-29T23:56:16.372Z,100.00
2023-03-29T23:58:42.893Z,100.00
